sensor_id;sensor_type;location;lat;lon;timestamp;temperature;humidity
1355;DHT22;671;48.972;9.276;2023-02-25T00:02:24;6.50;99.90
1355;DHT22;671;48.972;9.276;2023-02-25T00:04:51;6.50;99.90
1355;DHT22;671;48.972;9.276;2023-02-25T00:07:18;6.50;99.90
1355;DHT22;671;48.972;9.276;2023-02-25T00:09:45;6.50;99.90
1355;DHT22;671;48.972;9.276;2023-02-25T00:12:11;6.50;99.90
1355;DHT22;671;48.972;9.276;2023-02-25T00:14:38;6.50;99.90
1355;DHT22;671;48.972;9.276;2023-02-25T00:17:05;6.50;99.90
1355;DHT22;671;48.972;9.276;2023-02-25T00:19:32;6.50;99.90
1355;DHT22;671;48.972;9.276;2023-02-25T00:21:58;6.50;99.90
1355;DHT22;671;48.972;9.276;2023-02-25T00:24:25;6.50;99.90
1355;DHT22;671;48.972;9.276;2023-02-25T00:26:52;6.50;99.90
1355;DHT22;671;48.972;9.276;2023-02-25T00:29:18;6.60;99.90
1355;DHT22;671;48.972;9.276;2023-02-25T00:31:45;6.60;99.90
1355;DHT22;671;48.972;9.276;2023-02-25T00:34:11;6.60;99.90
1355;DHT22;671;48.972;9.276;2023-02-25T00:36:38;6.50;99.90
1355;DHT22;671;48.972;9.276;2023-02-25T00:39:05;6.50;99.90
1355;DHT22;671;48.972;9.276;2023-02-25T00:41:32;6.50;99.90
1355;DHT22;671;48.972;9.276;2023-02-25T00:43:59;6.50;99.90
1355;DHT22;671;48.972;9.276;2023-02-25T00:46:28;6.50;99.90
1355;DHT22;671;48.972;9.276;2023-02-25T00:48:55;6.50;99.90
1355;DHT22;671;48.972;9.276;2023-02-25T00:51:25;6.50;99.90
1355;DHT22;671;48.972;9.276;2023-02-25T00:53:53;6.50;99.90
1355;DHT22;671;48.972;9.276;2023-02-25T00:56:22;6.50;99.90
1355;DHT22;671;48.972;9.276;2023-02-25T00:58:50;6.40;99.90
1355;DHT22;671;48.972;9.276;2023-02-25T01:01:23;6.40;99.90
1355;DHT22;671;48.972;9.276;2023-02-25T01:03:51;6.40;99.90
1355;DHT22;671;48.972;9.276;2023-02-25T01:06:19;6.40;1.00
1355;DHT22;671;48.972;9.276;2023-02-25T01:08:45;6.30;99.90
1355;DHT22;671;48.972;9.276;2023-02-25T01:11:18;6.30;1.00
1355;DHT22;671;48.972;9.276;2023-02-25T01:13:47;6.30;1.00
1355;DHT22;671;48.972;9.276;2023-02-25T01:16:18;6.30;1.00
1355;DHT22;671;48.972;9.276;2023-02-25T01:18:45;6.30;1.00
1355;DHT22;671;48.972;9.276;2023-02-25T01:21:20;6.30;1.00
1355;DHT22;671;48.972;9.276;2023-02-25T01:23:48;6.30;1.00
1355;DHT22;671;48.972;9.276;2023-02-25T01:26:15;6.30;1.00
1355;DHT22;671;48.972;9.276;2023-02-25T01:28:41;6.30;1.00
1355;DHT22;671;48.972;9.276;2023-02-25T01:31:18;6.30;1.00
1355;DHT22;671;48.972;9.276;2023-02-25T01:33:45;6.30;1.00
1355;DHT22;671;48.972;9.276;2023-02-25T01:36:11;6.30;1.00
1355;DHT22;671;48.972;9.276;2023-02-25T01:38:37;6.30;1.00
1355;DHT22;671;48.972;9.276;2023-02-25T01:41:04;6.30;1.00
1355;DHT22;671;48.972;9.276;2023-02-25T01:43:30;6.20;1.00
1355;DHT22;671;48.972;9.276;2023-02-25T01:45:57;6.30;1.00
1355;DHT22;671;48.972;9.276;2023-02-25T01:48:30;6.30;1.00
1355;DHT22;671;48.972;9.276;2023-02-25T01:51:01;6.30;99.90
1355;DHT22;671;48.972;9.276;2023-02-25T01:53:48;6.30;99.90
1355;DHT22;671;48.972;9.276;2023-02-25T01:56:16;6.30;99.90
1355;DHT22;671;48.972;9.276;2023-02-25T01:58:47;6.30;99.90
1355;DHT22;671;48.972;9.276;2023-02-25T02:01:17;6.30;99.90
1355;DHT22;671;48.972;9.276;2023-02-25T02:03:44;6.30;99.90
1355;DHT22;671;48.972;9.276;2023-02-25T02:06:22;6.30;99.90
1355;DHT22;671;48.972;9.276;2023-02-25T02:08:49;6.30;99.90
1355;DHT22;671;48.972;9.276;2023-02-25T02:11:16;6.40;99.90
1355;DHT22;671;48.972;9.276;2023-02-25T02:13:48;6.40;99.90
1355;DHT22;671;48.972;9.276;2023-02-25T02:27:37;6.20;1.00
1355;DHT22;671;48.972;9.276;2023-02-25T02:30:32;6.20;1.00
1355;DHT22;671;48.972;9.276;2023-02-25T02:33:18;6.10;1.00
1355;DHT22;671;48.972;9.276;2023-02-25T02:44:23;5.80;1.00
1355;DHT22;671;48.972;9.276;2023-02-25T02:49:38;5.60;1.00
1355;DHT22;671;48.972;9.276;2023-02-25T02:52:21;5.60;1.00
1355;DHT22;671;48.972;9.276;2023-02-25T02:55:02;5.60;1.00
1355;DHT22;671;48.972;9.276;2023-02-25T02:57:31;5.70;1.00
1355;DHT22;671;48.972;9.276;2023-02-25T03:00:23;5.70;20.70
1355;DHT22;671;48.972;9.276;2023-02-25T03:02:59;5.70;99.90
1355;DHT22;671;48.972;9.276;2023-02-25T03:05:28;5.70;93.80
1355;DHT22;671;48.972;9.276;2023-02-25T03:08:09;5.70;1.00
1355;DHT22;671;48.972;9.276;2023-02-25T03:10:36;5.70;99.90
1355;DHT22;671;48.972;9.276;2023-02-25T03:13:03;5.70;43.60
1355;DHT22;671;48.972;9.276;2023-02-25T03:15:30;5.70;6.60
1355;DHT22;671;48.972;9.276;2023-02-25T03:18:22;5.70;1.00
1355;DHT22;671;48.972;9.276;2023-02-25T03:20:48;5.70;42.80
1355;DHT22;671;48.972;9.276;2023-02-25T03:23:21;5.70;1.00
1355;DHT22;671;48.972;9.276;2023-02-25T03:25:55;5.70;77.80
1355;DHT22;671;48.972;9.276;2023-02-25T03:28:27;5.70;23.00
1355;DHT22;671;48.972;9.276;2023-02-25T03:31:03;5.70;99.90
1355;DHT22;671;48.972;9.276;2023-02-25T03:34:13;5.70;93.20
1355;DHT22;671;48.972;9.276;2023-02-25T03:36:56;5.70;99.90
1355;DHT22;671;48.972;9.276;2023-02-25T03:39:30;5.70;99.90
1355;DHT22;671;48.972;9.276;2023-02-25T03:42:00;5.60;99.90
1355;DHT22;671;48.972;9.276;2023-02-25T03:44:32;5.60;99.90
1355;DHT22;671;48.972;9.276;2023-02-25T03:47:01;5.60;99.90
1355;DHT22;671;48.972;9.276;2023-02-25T03:49:39;5.60;99.90
1355;DHT22;671;48.972;9.276;2023-02-25T03:52:14;5.50;99.90
1355;DHT22;671;48.972;9.276;2023-02-25T03:54:42;5.40;99.90
1355;DHT22;671;48.972;9.276;2023-02-25T03:57:08;5.30;99.90
1355;DHT22;671;48.972;9.276;2023-02-25T03:59:35;5.30;99.90
1355;DHT22;671;48.972;9.276;2023-02-25T04:02:02;5.20;99.90
1355;DHT22;671;48.972;9.276;2023-02-25T04:04:28;5.10;99.90
1355;DHT22;671;48.972;9.276;2023-02-25T04:06:55;5.00;99.90
1355;DHT22;671;48.972;9.276;2023-02-25T04:09:21;5.00;99.90
1355;DHT22;671;48.972;9.276;2023-02-25T04:11:48;5.00;1.00
1355;DHT22;671;48.972;9.276;2023-02-25T04:14:14;4.90;1.00
1355;DHT22;671;48.972;9.276;2023-02-25T04:16:42;4.90;1.00
1355;DHT22;671;48.972;9.276;2023-02-25T04:19:08;4.90;1.00
1355;DHT22;671;48.972;9.276;2023-02-25T04:21:35;4.90;1.00
1355;DHT22;671;48.972;9.276;2023-02-25T04:24:03;4.90;1.00
1355;DHT22;671;48.972;9.276;2023-02-25T04:26:33;4.90;1.00
1355;DHT22;671;48.972;9.276;2023-02-25T04:28:59;5.00;99.90
1355;DHT22;671;48.972;9.276;2023-02-25T04:31:26;5.00;99.90
1355;DHT22;671;48.972;9.276;2023-02-25T04:33:52;5.10;99.90
1355;DHT22;671;48.972;9.276;2023-02-25T04:36:34;5.10;99.90
1355;DHT22;671;48.972;9.276;2023-02-25T04:39:03;5.20;99.90
1355;DHT22;671;48.972;9.276;2023-02-25T04:41:32;5.20;99.90
1355;DHT22;671;48.972;9.276;2023-02-25T04:43:59;5.30;99.90
1355;DHT22;671;48.972;9.276;2023-02-25T04:46:26;5.30;99.90
1355;DHT22;671;48.972;9.276;2023-02-25T04:48:52;5.30;99.90
1355;DHT22;671;48.972;9.276;2023-02-25T04:51:19;5.40;99.90
1355;DHT22;671;48.972;9.276;2023-02-25T04:53:46;5.40;94.50
1355;DHT22;671;48.972;9.276;2023-02-25T04:56:13;5.40;99.90
1355;DHT22;671;48.972;9.276;2023-02-25T04:58:39;5.40;1.00
1355;DHT22;671;48.972;9.276;2023-02-25T05:01:07;5.40;1.00
1355;DHT22;671;48.972;9.276;2023-02-25T05:03:35;5.50;1.00
1355;DHT22;671;48.972;9.276;2023-02-25T05:06:02;5.50;1.00
1355;DHT22;671;48.972;9.276;2023-02-25T05:08:29;5.50;1.00
1355;DHT22;671;48.972;9.276;2023-02-25T05:10:55;5.50;1.00
1355;DHT22;671;48.972;9.276;2023-02-25T05:13:22;5.60;1.00
1355;DHT22;671;48.972;9.276;2023-02-25T05:15:48;5.60;99.90
1355;DHT22;671;48.972;9.276;2023-02-25T05:18:15;5.50;54.90
1355;DHT22;671;48.972;9.276;2023-02-25T05:20:46;5.60;99.90
1355;DHT22;671;48.972;9.276;2023-02-25T05:23:13;5.60;1.00
1355;DHT22;671;48.972;9.276;2023-02-25T05:25:39;5.60;1.00
1355;DHT22;671;48.972;9.276;2023-02-25T05:28:10;5.60;1.00
1355;DHT22;671;48.972;9.276;2023-02-25T05:30:37;5.60;1.00
1355;DHT22;671;48.972;9.276;2023-02-25T05:33:05;5.60;99.90
1355;DHT22;671;48.972;9.276;2023-02-25T05:35:32;5.50;99.90
1355;DHT22;671;48.972;9.276;2023-02-25T05:37:59;5.50;99.90
1355;DHT22;671;48.972;9.276;2023-02-25T05:40:26;5.60;99.90
1355;DHT22;671;48.972;9.276;2023-02-25T05:42:52;5.60;1.00
1355;DHT22;671;48.972;9.276;2023-02-25T05:45:18;5.60;99.90
1355;DHT22;671;48.972;9.276;2023-02-25T05:47:45;5.60;99.90
1355;DHT22;671;48.972;9.276;2023-02-25T05:50:11;5.60;99.90
1355;DHT22;671;48.972;9.276;2023-02-25T05:52:38;5.50;86.00
1355;DHT22;671;48.972;9.276;2023-02-25T05:55:05;5.60;99.90
1355;DHT22;671;48.972;9.276;2023-02-25T05:57:33;5.60;1.00
1355;DHT22;671;48.972;9.276;2023-02-25T06:00:00;5.60;1.00
1355;DHT22;671;48.972;9.276;2023-02-25T06:02:27;5.60;1.00
1355;DHT22;671;48.972;9.276;2023-02-25T06:04:53;5.60;1.00
1355;DHT22;671;48.972;9.276;2023-02-25T06:07:20;5.60;1.00
1355;DHT22;671;48.972;9.276;2023-02-25T06:09:46;5.60;1.00
1355;DHT22;671;48.972;9.276;2023-02-25T06:12:13;5.60;1.00
1355;DHT22;671;48.972;9.276;2023-02-25T06:14:40;5.70;1.00
1355;DHT22;671;48.972;9.276;2023-02-25T06:17:06;5.70;1.00
1355;DHT22;671;48.972;9.276;2023-02-25T06:19:32;5.70;1.00
1355;DHT22;671;48.972;9.276;2023-02-25T06:21:59;5.70;1.00
1355;DHT22;671;48.972;9.276;2023-02-25T06:24:25;5.70;1.00
1355;DHT22;671;48.972;9.276;2023-02-25T06:26:52;5.70;1.00
1355;DHT22;671;48.972;9.276;2023-02-25T06:29:18;5.70;1.00
1355;DHT22;671;48.972;9.276;2023-02-25T06:31:45;5.70;34.90
1355;DHT22;671;48.972;9.276;2023-02-25T06:34:11;5.70;1.00
1355;DHT22;671;48.972;9.276;2023-02-25T06:36:38;5.70;1.00
1355;DHT22;671;48.972;9.276;2023-02-25T06:39:04;5.70;99.90
1355;DHT22;671;48.972;9.276;2023-02-25T06:41:30;5.70;39.20
1355;DHT22;671;48.972;9.276;2023-02-25T06:43:57;5.70;1.00
1355;DHT22;671;48.972;9.276;2023-02-25T06:46:25;5.70;1.00
1355;DHT22;671;48.972;9.276;2023-02-25T06:48:52;5.70;1.60
1355;DHT22;671;48.972;9.276;2023-02-25T06:51:18;5.70;82.10
1355;DHT22;671;48.972;9.276;2023-02-25T06:53:45;5.70;1.00
1355;DHT22;671;48.972;9.276;2023-02-25T06:56:13;5.70;99.90
1355;DHT22;671;48.972;9.276;2023-02-25T06:58:41;5.70;1.00
1355;DHT22;671;48.972;9.276;2023-02-25T07:01:11;5.70;1.00
1355;DHT22;671;48.972;9.276;2023-02-25T07:03:39;5.70;1.00
1355;DHT22;671;48.972;9.276;2023-02-25T07:06:06;5.70;1.00
1355;DHT22;671;48.972;9.276;2023-02-25T07:08:34;5.70;1.00
1355;DHT22;671;48.972;9.276;2023-02-25T07:11:24;5.80;99.90
1355;DHT22;671;48.972;9.276;2023-02-25T07:13:52;5.80;1.00
1355;DHT22;671;48.972;9.276;2023-02-25T07:16:18;5.80;1.00
1355;DHT22;671;48.972;9.276;2023-02-25T07:18:46;5.80;99.90
1355;DHT22;671;48.972;9.276;2023-02-25T07:21:13;5.80;99.90
1355;DHT22;671;48.972;9.276;2023-02-25T07:23:41;5.80;99.90
1355;DHT22;671;48.972;9.276;2023-02-25T07:26:09;5.80;99.90
1355;DHT22;671;48.972;9.276;2023-02-25T07:28:37;5.90;99.90
1355;DHT22;671;48.972;9.276;2023-02-25T07:33:37;5.80;99.90
1355;DHT22;671;48.972;9.276;2023-02-25T07:36:03;5.90;81.60
1355;DHT22;671;48.972;9.276;2023-02-25T07:38:30;5.90;99.90
1355;DHT22;671;48.972;9.276;2023-02-25T07:41:06;5.90;99.90
1355;DHT22;671;48.972;9.276;2023-02-25T07:43:33;6.00;1.00
1355;DHT22;671;48.972;9.276;2023-02-25T07:45:59;6.00;1.00
1355;DHT22;671;48.972;9.276;2023-02-25T07:48:26;6.00;99.90
1355;DHT22;671;48.972;9.276;2023-02-25T07:50:53;6.10;99.90
1355;DHT22;671;48.972;9.276;2023-02-25T07:53:19;6.10;1.00
1355;DHT22;671;48.972;9.276;2023-02-25T07:55:48;6.00;99.90
1355;DHT22;671;48.972;9.276;2023-02-25T07:58:15;6.10;99.90
1355;DHT22;671;48.972;9.276;2023-02-25T08:00:41;6.10;99.90
1355;DHT22;671;48.972;9.276;2023-02-25T08:03:10;6.10;99.90
1355;DHT22;671;48.972;9.276;2023-02-25T08:05:37;6.10;99.90
1355;DHT22;671;48.972;9.276;2023-02-25T08:08:04;6.10;99.90
1355;DHT22;671;48.972;9.276;2023-02-25T08:10:30;6.10;99.90
1355;DHT22;671;48.972;9.276;2023-02-25T08:12:57;6.10;1.00
1355;DHT22;671;48.972;9.276;2023-02-25T08:15:23;6.20;99.90
1355;DHT22;671;48.972;9.276;2023-02-25T08:17:50;6.30;99.90
1355;DHT22;671;48.972;9.276;2023-02-25T08:20:18;6.40;99.90
1355;DHT22;671;48.972;9.276;2023-02-25T08:22:44;6.40;80.70
1355;DHT22;671;48.972;9.276;2023-02-25T08:25:11;6.50;1.00
1355;DHT22;671;48.972;9.276;2023-02-25T08:27:37;6.50;1.00
1355;DHT22;671;48.972;9.276;2023-02-25T08:30:04;6.60;99.90
1355;DHT22;671;48.972;9.276;2023-02-25T08:32:35;6.60;99.90
1355;DHT22;671;48.972;9.276;2023-02-25T08:35:02;6.60;4.30
1355;DHT22;671;48.972;9.276;2023-02-25T08:37:29;6.60;36.50
1355;DHT22;671;48.972;9.276;2023-02-25T08:39:55;6.70;1.00
1355;DHT22;671;48.972;9.276;2023-02-25T08:42:22;6.80;1.00
1355;DHT22;671;48.972;9.276;2023-02-25T08:44:49;6.80;1.00
1355;DHT22;671;48.972;9.276;2023-02-25T08:47:16;6.90;99.90
1355;DHT22;671;48.972;9.276;2023-02-25T08:49:43;6.90;99.90
1355;DHT22;671;48.972;9.276;2023-02-25T08:52:09;6.80;99.90
1355;DHT22;671;48.972;9.276;2023-02-25T08:54:38;6.90;99.90
1355;DHT22;671;48.972;9.276;2023-02-25T08:57:04;6.90;99.90
1355;DHT22;671;48.972;9.276;2023-02-25T08:59:31;7.00;99.90
1355;DHT22;671;48.972;9.276;2023-02-25T09:02:03;7.10;99.90
1355;DHT22;671;48.972;9.276;2023-02-25T09:04:32;7.10;1.00
1355;DHT22;671;48.972;9.276;2023-02-25T09:07:00;7.10;1.00
1355;DHT22;671;48.972;9.276;2023-02-25T09:09:27;7.10;1.00
1355;DHT22;671;48.972;9.276;2023-02-25T09:11:54;7.30;17.20
1355;DHT22;671;48.972;9.276;2023-02-25T09:14:21;7.20;1.00
1355;DHT22;671;48.972;9.276;2023-02-25T09:16:48;7.30;1.00
1355;DHT22;671;48.972;9.276;2023-02-25T09:19:15;7.30;1.00
1355;DHT22;671;48.972;9.276;2023-02-25T09:21:46;7.40;1.00
1355;DHT22;671;48.972;9.276;2023-02-25T09:24:16;7.40;1.00
1355;DHT22;671;48.972;9.276;2023-02-25T09:26:43;7.40;1.00
1355;DHT22;671;48.972;9.276;2023-02-25T09:29:09;7.40;1.00
1355;DHT22;671;48.972;9.276;2023-02-25T09:31:36;7.40;1.00
1355;DHT22;671;48.972;9.276;2023-02-25T09:34:07;7.50;1.00
1355;DHT22;671;48.972;9.276;2023-02-25T09:36:34;7.50;1.00
1355;DHT22;671;48.972;9.276;2023-02-25T09:39:01;7.60;99.90
1355;DHT22;671;48.972;9.276;2023-02-25T09:44:14;7.60;99.90
1355;DHT22;671;48.972;9.276;2023-02-25T09:46:50;7.60;99.90
1355;DHT22;671;48.972;9.276;2023-02-25T09:49:28;7.60;99.90
1355;DHT22;671;48.972;9.276;2023-02-25T09:52:02;7.70;99.90
1355;DHT22;671;48.972;9.276;2023-02-25T09:54:44;7.70;18.80
1355;DHT22;671;48.972;9.276;2023-02-25T09:57:15;7.70;1.00
1355;DHT22;671;48.972;9.276;2023-02-25T09:59:45;7.80;1.00
1355;DHT22;671;48.972;9.276;2023-02-25T10:04:57;7.80;1.00
1355;DHT22;671;48.972;9.276;2023-02-25T10:07:34;7.80;1.00
1355;DHT22;671;48.972;9.276;2023-02-25T10:10:08;7.80;1.00
1355;DHT22;671;48.972;9.276;2023-02-25T10:12:51;7.90;1.00
1355;DHT22;671;48.972;9.276;2023-02-25T10:24:25;8.10;1.00
1355;DHT22;671;48.972;9.276;2023-02-25T10:26:57;8.20;1.00
1355;DHT22;671;48.972;9.276;2023-02-25T10:29:37;8.30;1.00
1355;DHT22;671;48.972;9.276;2023-02-25T10:32:22;8.50;1.00
1355;DHT22;671;48.972;9.276;2023-02-25T10:34:59;8.60;1.00
1355;DHT22;671;48.972;9.276;2023-02-25T10:37:32;8.80;1.00
1355;DHT22;671;48.972;9.276;2023-02-25T10:40:00;8.90;1.00
1355;DHT22;671;48.972;9.276;2023-02-25T10:42:27;9.00;1.00
1355;DHT22;671;48.972;9.276;2023-02-25T10:45:00;9.00;1.00
1355;DHT22;671;48.972;9.276;2023-02-25T10:47:39;9.00;1.00
1355;DHT22;671;48.972;9.276;2023-02-25T10:53:02;8.90;1.00
1355;DHT22;671;48.972;9.276;2023-02-25T11:01:08;8.60;1.00
1355;DHT22;671;48.972;9.276;2023-02-25T11:06:21;8.30;1.00
1355;DHT22;671;48.972;9.276;2023-02-25T11:08:48;8.30;1.00
1355;DHT22;671;48.972;9.276;2023-02-25T11:11:19;8.20;1.00
1355;DHT22;671;48.972;9.276;2023-02-25T11:16:30;8.40;1.00
1355;DHT22;671;48.972;9.276;2023-02-25T11:18:59;8.50;1.00
1355;DHT22;671;48.972;9.276;2023-02-25T11:21:35;8.50;1.00
1355;DHT22;671;48.972;9.276;2023-02-25T11:26:41;8.40;1.00
1355;DHT22;671;48.972;9.276;2023-02-25T11:29:16;8.30;1.00
1355;DHT22;671;48.972;9.276;2023-02-25T11:31:53;8.20;1.00
1355;DHT22;671;48.972;9.276;2023-02-25T11:34:26;8.20;1.00
1355;DHT22;671;48.972;9.276;2023-02-25T11:36:53;8.10;1.00
1355;DHT22;671;48.972;9.276;2023-02-25T11:39:25;8.00;1.00
1355;DHT22;671;48.972;9.276;2023-02-25T11:42:04;8.00;1.00
1355;DHT22;671;48.972;9.276;2023-02-25T11:44:44;8.00;1.00
1355;DHT22;671;48.972;9.276;2023-02-25T11:47:24;8.00;1.00
1355;DHT22;671;48.972;9.276;2023-02-25T11:59:21;7.80;1.00
1355;DHT22;671;48.972;9.276;2023-02-25T12:54:05;7.50;99.90
1355;DHT22;671;48.972;9.276;2023-02-25T13:08:30;7.90;1.00
1355;DHT22;671;48.972;9.276;2023-02-25T13:23:17;8.30;1.00
1355;DHT22;671;48.972;9.276;2023-02-25T13:31:42;8.40;99.90
1355;DHT22;671;48.972;9.276;2023-02-25T13:46:04;8.50;1.00
1355;DHT22;671;48.972;9.276;2023-02-25T13:54:38;8.60;1.00
1355;DHT22;671;48.972;9.276;2023-02-25T14:03:08;8.60;1.00
1355;DHT22;671;48.972;9.276;2023-02-25T14:17:14;8.10;1.00
1355;DHT22;671;48.972;9.276;2023-02-25T14:22:42;8.40;1.00
1355;DHT22;671;48.972;9.276;2023-02-25T14:28:28;8.50;1.00
1355;DHT22;671;48.972;9.276;2023-02-25T14:31:20;8.50;1.00
1355;DHT22;671;48.972;9.276;2023-02-25T14:39:34;8.60;1.00
1355;DHT22;671;48.972;9.276;2023-02-25T14:47:58;8.70;1.00
1355;DHT22;671;48.972;9.276;2023-02-25T14:50:39;8.60;1.00
1355;DHT22;671;48.972;9.276;2023-02-25T14:53:40;8.60;1.00
1355;DHT22;671;48.972;9.276;2023-02-25T14:59:55;8.60;1.00
1355;DHT22;671;48.972;9.276;2023-02-25T15:08:20;8.50;1.00
1355;DHT22;671;48.972;9.276;2023-02-25T15:11:09;8.50;1.00
1355;DHT22;671;48.972;9.276;2023-02-25T15:20:02;8.10;1.00
1355;DHT22;671;48.972;9.276;2023-02-25T15:22:35;7.90;1.00
1355;DHT22;671;48.972;9.276;2023-02-25T15:27:49;7.50;48.70
1355;DHT22;671;48.972;9.276;2023-02-25T15:30:18;7.00;99.90
1355;DHT22;671;48.972;9.276;2023-02-25T15:45:37;5.70;99.90
1355;DHT22;671;48.972;9.276;2023-02-25T15:58:42;5.60;1.00
1355;DHT22;671;48.972;9.276;2023-02-25T16:01:39;5.60;1.00
1355;DHT22;671;48.972;9.276;2023-02-25T16:07:12;5.60;1.00
1355;DHT22;671;48.972;9.276;2023-02-25T16:09:43;5.60;1.00
1355;DHT22;671;48.972;9.276;2023-02-25T16:12:13;5.50;1.00
1355;DHT22;671;48.972;9.276;2023-02-25T16:14:40;5.50;1.00
1355;DHT22;671;48.972;9.276;2023-02-25T16:17:26;5.50;1.00
1355;DHT22;671;48.972;9.276;2023-02-25T16:20:19;5.60;99.90
1355;DHT22;671;48.972;9.276;2023-02-25T16:22:45;5.70;99.90
1355;DHT22;671;48.972;9.276;2023-02-25T16:25:14;5.80;1.00
1355;DHT22;671;48.972;9.276;2023-02-25T16:30:37;5.90;1.00
1355;DHT22;671;48.972;9.276;2023-02-25T16:35:44;5.80;99.90
1355;DHT22;671;48.972;9.276;2023-02-25T16:38:42;5.70;99.90
1355;DHT22;671;48.972;9.276;2023-02-25T16:41:12;5.60;99.90
1355;DHT22;671;48.972;9.276;2023-02-25T16:43:41;5.50;1.00
1355;DHT22;671;48.972;9.276;2023-02-25T16:46:15;5.50;99.90
1355;DHT22;671;48.972;9.276;2023-02-25T16:48:53;5.40;99.90
1355;DHT22;671;48.972;9.276;2023-02-25T16:51:38;5.40;1.00
1355;DHT22;671;48.972;9.276;2023-02-25T16:56:58;5.40;99.90
1355;DHT22;671;48.972;9.276;2023-02-25T16:59:31;5.40;99.90
1355;DHT22;671;48.972;9.276;2023-02-25T17:05:01;5.50;99.90
1355;DHT22;671;48.972;9.276;2023-02-25T17:07:28;5.40;99.90
1355;DHT22;671;48.972;9.276;2023-02-25T17:09:58;5.20;1.00
1355;DHT22;671;48.972;9.276;2023-02-25T17:15:24;4.20;1.00
1355;DHT22;671;48.972;9.276;2023-02-25T17:18:11;3.60;1.00
1355;DHT22;671;48.972;9.276;2023-02-25T17:20:40;3.20;1.00
1355;DHT22;671;48.972;9.276;2023-02-25T17:23:10;3.10;1.00
1355;DHT22;671;48.972;9.276;2023-02-25T17:25:41;3.00;1.00
1355;DHT22;671;48.972;9.276;2023-02-25T17:28:26;3.00;1.00
1355;DHT22;671;48.972;9.276;2023-02-25T17:31:15;2.80;1.00
1355;DHT22;671;48.972;9.276;2023-02-25T17:34:11;2.80;1.00
1355;DHT22;671;48.972;9.276;2023-02-25T17:36:37;2.70;1.00
1355;DHT22;671;48.972;9.276;2023-02-25T17:39:14;2.70;1.00
1355;DHT22;671;48.972;9.276;2023-02-25T17:41:42;2.70;1.00
1355;DHT22;671;48.972;9.276;2023-02-25T17:47:01;2.70;1.00
1355;DHT22;671;48.972;9.276;2023-02-25T17:49:31;2.80;1.00
1355;DHT22;671;48.972;9.276;2023-02-25T17:52:06;2.80;10.00
1355;DHT22;671;48.972;9.276;2023-02-25T17:54:35;2.90;1.00
1355;DHT22;671;48.972;9.276;2023-02-25T17:57:15;3.00;5.90
1355;DHT22;671;48.972;9.276;2023-02-25T18:04:48;3.10;1.00
1355;DHT22;671;48.972;9.276;2023-02-25T18:07:40;3.20;9.40
1355;DHT22;671;48.972;9.276;2023-02-25T18:12:49;3.40;13.90
1355;DHT22;671;48.972;9.276;2023-02-25T18:15:18;3.30;1.00
1355;DHT22;671;48.972;9.276;2023-02-25T18:17:49;3.40;14.40
1355;DHT22;671;48.972;9.276;2023-02-25T18:23:02;3.40;1.00
1355;DHT22;671;48.972;9.276;2023-02-25T18:25:40;3.30;1.00
1355;DHT22;671;48.972;9.276;2023-02-25T18:28:18;3.30;4.60
1355;DHT22;671;48.972;9.276;2023-02-25T18:30:47;3.30;1.00
1355;DHT22;671;48.972;9.276;2023-02-25T18:33:15;3.30;2.20
1355;DHT22;671;48.972;9.276;2023-02-25T18:35:44;3.40;9.40
1355;DHT22;671;48.972;9.276;2023-02-25T18:38:22;3.40;1.00
1355;DHT22;671;48.972;9.276;2023-02-25T18:40:50;3.40;1.00
1355;DHT22;671;48.972;9.276;2023-02-25T18:43:19;3.40;1.00
1355;DHT22;671;48.972;9.276;2023-02-25T18:45:46;3.40;1.00
1355;DHT22;671;48.972;9.276;2023-02-25T18:48:13;3.40;1.00
1355;DHT22;671;48.972;9.276;2023-02-25T18:50:41;3.40;1.00
1355;DHT22;671;48.972;9.276;2023-02-25T18:53:22;3.40;1.00
1355;DHT22;671;48.972;9.276;2023-02-25T18:55:50;3.40;1.00
1355;DHT22;671;48.972;9.276;2023-02-25T18:58:18;3.40;1.00
1355;DHT22;671;48.972;9.276;2023-02-25T19:00:48;3.40;1.00
1355;DHT22;671;48.972;9.276;2023-02-25T19:03:29;3.30;1.00
1355;DHT22;671;48.972;9.276;2023-02-25T19:05:56;3.10;1.00
1355;DHT22;671;48.972;9.276;2023-02-25T19:08:23;3.00;1.00
1355;DHT22;671;48.972;9.276;2023-02-25T19:10:51;3.00;1.00
1355;DHT22;671;48.972;9.276;2023-02-25T19:13:34;2.90;1.00
1355;DHT22;671;48.972;9.276;2023-02-25T19:16:01;2.90;1.00
1355;DHT22;671;48.972;9.276;2023-02-25T19:18:28;2.80;1.00
1355;DHT22;671;48.972;9.276;2023-02-25T19:20:55;2.70;1.00
1355;DHT22;671;48.972;9.276;2023-02-25T19:23:22;2.70;1.00
1355;DHT22;671;48.972;9.276;2023-02-25T19:25:54;2.60;1.00
1355;DHT22;671;48.972;9.276;2023-02-25T19:28:21;2.60;1.00
1355;DHT22;671;48.972;9.276;2023-02-25T19:30:47;2.60;1.00
1355;DHT22;671;48.972;9.276;2023-02-25T19:33:14;2.50;1.00
1355;DHT22;671;48.972;9.276;2023-02-25T19:35:41;2.50;1.00
1355;DHT22;671;48.972;9.276;2023-02-25T19:38:15;2.40;1.00
1355;DHT22;671;48.972;9.276;2023-02-25T19:40:42;2.40;1.00
1355;DHT22;671;48.972;9.276;2023-02-25T19:43:10;2.40;1.00
1355;DHT22;671;48.972;9.276;2023-02-25T19:45:38;2.30;1.00
1355;DHT22;671;48.972;9.276;2023-02-25T19:48:06;2.40;1.00
1355;DHT22;671;48.972;9.276;2023-02-25T19:50:33;2.40;1.00
1355;DHT22;671;48.972;9.276;2023-02-25T19:53:01;2.50;1.00
1355;DHT22;671;48.972;9.276;2023-02-25T19:55:28;2.50;1.00
1355;DHT22;671;48.972;9.276;2023-02-25T19:57:54;2.60;1.00
1355;DHT22;671;48.972;9.276;2023-02-25T20:00:24;2.70;1.00
1355;DHT22;671;48.972;9.276;2023-02-25T20:02:52;2.70;1.00
1355;DHT22;671;48.972;9.276;2023-02-25T20:05:19;2.80;1.00
1355;DHT22;671;48.972;9.276;2023-02-25T20:07:46;2.80;1.00
1355;DHT22;671;48.972;9.276;2023-02-25T20:10:13;2.90;1.00
1355;DHT22;671;48.972;9.276;2023-02-25T20:12:41;3.00;1.00
1355;DHT22;671;48.972;9.276;2023-02-25T20:15:08;3.00;1.00
1355;DHT22;671;48.972;9.276;2023-02-25T20:17:36;3.00;1.00
1355;DHT22;671;48.972;9.276;2023-02-25T20:20:04;3.00;1.00
1355;DHT22;671;48.972;9.276;2023-02-25T20:22:31;3.00;1.00
1355;DHT22;671;48.972;9.276;2023-02-25T20:24:58;3.00;1.00
1355;DHT22;671;48.972;9.276;2023-02-25T20:27:24;3.00;1.00
1355;DHT22;671;48.972;9.276;2023-02-25T20:29:51;3.00;1.00
1355;DHT22;671;48.972;9.276;2023-02-25T20:32:18;3.00;1.00
1355;DHT22;671;48.972;9.276;2023-02-25T20:34:44;3.00;1.00
1355;DHT22;671;48.972;9.276;2023-02-25T20:37:16;2.90;1.00
1355;DHT22;671;48.972;9.276;2023-02-25T20:39:51;2.90;1.00
1355;DHT22;671;48.972;9.276;2023-02-25T20:42:21;2.90;1.00
1355;DHT22;671;48.972;9.276;2023-02-25T20:44:49;2.80;1.00
1355;DHT22;671;48.972;9.276;2023-02-25T20:49:45;2.70;1.00
1355;DHT22;671;48.972;9.276;2023-02-25T20:52:13;2.70;1.00
1355;DHT22;671;48.972;9.276;2023-02-25T20:54:41;2.60;1.00
1355;DHT22;671;48.972;9.276;2023-02-25T20:57:10;2.60;99.90
1355;DHT22;671;48.972;9.276;2023-02-25T20:59:37;2.50;1.00
1355;DHT22;671;48.972;9.276;2023-02-25T21:02:04;2.50;99.90
1355;DHT22;671;48.972;9.276;2023-02-25T21:04:30;2.40;99.90
1355;DHT22;671;48.972;9.276;2023-02-25T21:06:56;2.40;99.90
1355;DHT22;671;48.972;9.276;2023-02-25T21:09:24;2.40;99.90
1355;DHT22;671;48.972;9.276;2023-02-25T21:11:50;2.40;99.90
1355;DHT22;671;48.972;9.276;2023-02-25T21:14:17;2.30;99.90
1355;DHT22;671;48.972;9.276;2023-02-25T21:16:43;2.30;99.90
1355;DHT22;671;48.972;9.276;2023-02-25T21:19:10;2.20;97.60
1355;DHT22;671;48.972;9.276;2023-02-25T21:21:36;2.20;25.60
1355;DHT22;671;48.972;9.276;2023-02-25T21:24:04;2.20;99.90
1355;DHT22;671;48.972;9.276;2023-02-25T21:26:35;2.10;93.10
1355;DHT22;671;48.972;9.276;2023-02-25T21:29:05;2.10;1.00
1355;DHT22;671;48.972;9.276;2023-02-25T21:31:32;2.10;1.00
1355;DHT22;671;48.972;9.276;2023-02-25T21:33:59;2.10;1.00
1355;DHT22;671;48.972;9.276;2023-02-25T21:36:26;2.10;1.00
1355;DHT22;671;48.972;9.276;2023-02-25T21:38:52;2.10;1.00
1355;DHT22;671;48.972;9.276;2023-02-25T21:41:20;2.10;1.00